createdAt,value
2024-05-09T00:02:15.695Z,9.49
2024-05-09T00:07:20.584Z,9.54
2024-05-09T00:12:25.584Z,9.40
2024-05-09T00:17:31.000Z,9.42
2024-05-09T00:22:35.922Z,9.28
2024-05-09T00:27:41.754Z,9.25
2024-05-09T00:32:46.671Z,9.17
2024-05-09T00:37:51.574Z,9.29
2024-05-09T00:42:56.469Z,9.39
2024-05-09T00:48:06.470Z,9.33
2024-05-09T00:53:17.092Z,9.33
2024-05-09T00:58:25.779Z,9.20
2024-05-09T01:03:30.939Z,9.19
2024-05-09T01:08:36.074Z,9.15
2024-05-09T01:13:40.949Z,9.15
2024-05-09T01:18:46.063Z,9.15
2024-05-09T01:23:51.000Z,9.19
2024-05-09T01:28:55.875Z,9.20
2024-05-09T01:34:00.878Z,9.31
2024-05-09T01:39:05.881Z,9.33
2024-05-09T01:44:10.934Z,9.33
2024-05-09T01:49:15.852Z,9.42
2024-05-09T01:54:20.717Z,9.35
2024-05-09T01:59:25.773Z,9.43
2024-05-09T02:04:30.858Z,9.35
2024-05-09T02:09:35.740Z,9.35
2024-05-09T02:14:40.538Z,9.36
2024-05-09T02:19:45.353Z,9.34
2024-05-09T02:24:50.286Z,9.48
2024-05-09T02:29:55.091Z,9.53
2024-05-09T02:34:59.953Z,9.53
2024-05-09T02:40:07.105Z,9.51
2024-05-09T02:45:13.966Z,9.52
2024-05-09T02:50:26.614Z,9.39
2024-05-09T02:55:38.983Z,9.40
2024-05-09T03:00:43.897Z,9.39
2024-05-09T03:05:48.879Z,9.45
2024-05-09T03:10:53.756Z,9.35
2024-05-09T03:15:58.547Z,9.35
2024-05-09T03:21:03.457Z,9.27
2024-05-09T03:26:13.817Z,9.20
2024-05-09T03:31:21.774Z,9.31
2024-05-09T03:36:26.805Z,9.28
2024-05-09T03:41:31.700Z,9.33
2024-05-09T03:46:41.265Z,9.34
2024-05-09T03:51:46.795Z,9.31
2024-05-09T03:56:51.601Z,9.32
2024-05-09T04:01:56.594Z,9.25
2024-05-09T04:07:01.467Z,9.17
2024-05-09T04:12:06.395Z,9.21
2024-05-09T04:17:11.246Z,9.28
2024-05-09T04:22:16.276Z,9.30
2024-05-09T04:27:21.091Z,9.31
2024-05-09T04:32:26.010Z,9.42
2024-05-09T04:37:31.038Z,9.36
2024-05-09T04:42:35.849Z,9.39
2024-05-09T04:47:40.877Z,9.36
2024-05-09T04:52:45.927Z,9.36
2024-05-09T04:57:50.716Z,9.47
2024-05-09T05:02:55.627Z,9.62
2024-05-09T05:08:00.718Z,9.66
2024-05-09T05:13:24.764Z,9.62
2024-05-09T05:18:30.850Z,9.74
2024-05-09T05:23:35.780Z,9.88
2024-05-09T05:28:40.666Z,9.88
2024-05-09T05:33:45.576Z,10.13
2024-05-09T05:38:50.696Z,10.23
2024-05-09T05:43:55.564Z,10.54
2024-05-09T05:49:00.513Z,10.65
2024-05-09T05:54:05.358Z,10.80
2024-05-09T05:59:11.984Z,10.90
2024-05-09T06:04:18.202Z,10.59
2024-05-09T06:09:23.081Z,10.72
2024-05-09T06:14:28.105Z,10.92
2024-05-09T06:19:33.210Z,11.19
2024-05-09T06:24:38.190Z,11.41
2024-05-09T06:29:43.202Z,11.45
2024-05-09T06:34:49.859Z,11.69
2024-05-09T06:39:54.660Z,11.86
2024-05-09T06:44:59.463Z,11.85
2024-05-09T06:50:08.217Z,12.31
2024-05-09T06:55:15.238Z,12.41
2024-05-09T07:00:27.485Z,12.91
2024-05-09T07:05:40.511Z,13.09
2024-05-09T07:10:45.503Z,13.62
2024-05-09T07:15:50.459Z,14.15
2024-05-09T07:20:55.476Z,13.82
2024-05-09T07:26:00.476Z,13.90
2024-05-09T07:31:05.308Z,14.07
2024-05-09T07:36:10.250Z,13.88
2024-05-09T07:41:15.108Z,14.54
2024-05-09T07:56:35.264Z,14.21
2024-05-09T08:01:40.299Z,14.26
2024-05-09T08:06:45.234Z,14.90
2024-05-09T08:11:50.092Z,14.12
2024-05-09T08:16:54.953Z,14.24
2024-05-09T08:22:01.771Z,14.60
2024-05-09T08:27:06.693Z,15.04
2024-05-09T08:32:13.026Z,14.73
2024-05-09T08:37:22.397Z,15.60
2024-05-09T08:42:30.356Z,16.05
2024-05-09T08:47:35.245Z,16.74
2024-05-09T08:52:40.253Z,16.24
2024-05-09T08:57:45.181Z,16.12
2024-05-09T09:02:52.579Z,16.81
2024-05-09T09:07:57.415Z,16.65
2024-05-09T09:13:05.349Z,15.48
2024-05-09T09:18:12.360Z,15.30
2024-05-09T09:23:19.784Z,15.01
2024-05-09T09:28:26.162Z,14.52
2024-05-09T09:33:32.198Z,14.10
2024-05-09T09:38:40.004Z,14.88
2024-05-09T09:43:45.565Z,15.18
2024-05-09T09:48:50.586Z,14.13
2024-05-09T09:53:55.882Z,14.63
2024-05-09T09:59:01.565Z,14.44
2024-05-09T10:04:06.756Z,14.17
2024-05-09T10:09:18.098Z,15.56
2024-05-09T10:14:25.696Z,16.53
2024-05-09T10:19:31.144Z,16.08
2024-05-09T10:24:55.445Z,17.02
2024-05-09T10:30:06.871Z,17.26
2024-05-09T10:35:19.418Z,17.63
2024-05-09T10:40:29.398Z,17.23
2024-05-09T10:45:38.393Z,16.99
2024-05-09T10:50:46.990Z,17.24
2024-05-09T10:56:01.315Z,17.52
2024-05-09T11:01:07.351Z,17.79
2024-05-09T11:06:14.340Z,17.10
2024-05-09T11:11:20.134Z,17.64
2024-05-09T11:16:25.048Z,17.13
2024-05-09T11:21:29.968Z,17.60
2024-05-09T11:26:35.599Z,17.71
2024-05-09T11:31:50.552Z,17.03
2024-05-09T11:36:55.441Z,16.25
2024-05-09T11:42:00.843Z,16.34
2024-05-09T11:47:07.122Z,16.79
2024-05-09T11:52:12.051Z,17.37
2024-05-09T11:57:16.849Z,17.58
2024-05-09T12:02:21.926Z,17.30
2024-05-09T12:07:27.032Z,17.58
2024-05-09T12:12:32.958Z,17.18
2024-05-09T12:17:39.080Z,16.94
2024-05-09T12:22:43.903Z,16.87
2024-05-09T12:27:48.896Z,16.68
2024-05-09T12:32:53.858Z,16.63
2024-05-09T12:37:58.893Z,17.58
2024-05-09T12:43:03.704Z,16.55
2024-05-09T12:48:12.171Z,16.10
2024-05-09T12:53:17.700Z,16.16
2024-05-09T12:58:22.956Z,17.44
2024-05-09T13:03:28.006Z,17.55
2024-05-09T13:08:32.863Z,18.04
2024-05-09T13:13:37.702Z,18.05
2024-05-09T13:18:44.126Z,17.29
2024-05-09T13:23:49.036Z,17.63
2024-05-09T13:28:53.820Z,17.05
2024-05-09T13:33:58.669Z,17.64
2024-05-09T13:39:03.883Z,17.78
2024-05-09T13:44:09.710Z,16.23
2024-05-09T13:49:17.024Z,16.79
2024-05-09T13:54:22.782Z,17.00
2024-05-09T13:59:27.838Z,16.39
2024-05-09T14:04:32.762Z,17.30
2024-05-09T14:09:37.714Z,17.41
2024-05-09T14:14:42.602Z,16.53
2024-05-09T14:19:47.445Z,17.90
2024-05-09T14:24:52.479Z,18.30
2024-05-09T14:29:57.262Z,18.50
2024-05-09T14:35:02.081Z,17.87
2024-05-09T14:40:09.527Z,17.88
2024-05-09T14:45:19.454Z,17.69
2024-05-09T14:50:34.404Z,17.87
2024-05-09T14:55:43.752Z,17.79
2024-05-09T15:00:51.335Z,17.40
2024-05-09T15:05:57.523Z,17.74
2024-05-09T15:11:02.390Z,18.08
2024-05-09T15:16:07.965Z,17.89
2024-05-09T15:21:12.808Z,18.11
2024-05-09T15:26:18.153Z,18.38
2024-05-09T15:31:23.053Z,17.75
2024-05-09T15:36:27.990Z,17.42
2024-05-09T15:41:32.766Z,18.08
2024-05-09T15:46:37.965Z,17.77
2024-05-09T15:51:42.897Z,17.50
2024-05-09T15:56:49.248Z,17.67
2024-05-09T16:01:54.411Z,18.07
2024-05-09T16:06:59.390Z,18.01
2024-05-09T16:12:04.228Z,18.43
2024-05-09T16:17:09.174Z,18.17
2024-05-09T16:22:14.108Z,17.44
2024-05-09T16:27:19.157Z,17.32
2024-05-09T16:32:24.061Z,17.47
2024-05-09T16:37:29.780Z,17.51
2024-05-09T16:42:35.322Z,17.68
2024-05-09T16:47:40.251Z,17.57
2024-05-09T16:52:45.287Z,17.16
2024-05-09T16:57:53.395Z,17.81
2024-05-09T17:02:58.306Z,17.79
2024-05-09T17:08:03.367Z,17.66
2024-05-09T17:13:08.524Z,17.54
2024-05-09T17:18:13.434Z,17.50
2024-05-09T17:23:21.386Z,16.89
2024-05-09T17:28:26.508Z,17.36
2024-05-09T17:33:31.903Z,16.90
2024-05-09T17:38:36.974Z,17.11
2024-05-09T17:43:41.791Z,16.56
2024-05-09T17:48:46.752Z,16.70
2024-05-09T17:53:51.606Z,16.84
2024-05-09T17:58:56.650Z,16.99
2024-05-09T18:04:01.626Z,17.16
2024-05-09T18:09:06.888Z,16.94
2024-05-09T18:14:11.683Z,16.78
2024-05-09T18:19:16.639Z,16.58
2024-05-09T18:24:22.222Z,16.48
2024-05-09T18:29:27.045Z,16.34
2024-05-09T18:34:33.153Z,16.60
2024-05-09T18:39:38.209Z,16.56
2024-05-09T18:44:44.946Z,16.40
2024-05-09T18:49:50.690Z,16.24
2024-05-09T18:54:57.904Z,16.15
2024-05-09T19:00:04.183Z,16.04
2024-05-09T19:05:10.268Z,16.06
2024-05-09T19:10:22.491Z,16.00
2024-05-09T19:15:30.965Z,15.81
2024-05-09T19:20:37.788Z,15.85
2024-05-09T19:25:45.492Z,15.86
2024-05-09T19:30:50.566Z,15.56
2024-05-09T19:35:55.379Z,15.45
2024-05-09T19:41:00.366Z,15.31
2024-05-09T19:46:05.753Z,15.38
2024-05-09T19:51:10.640Z,15.48
2024-05-09T19:56:16.648Z,14.60
2024-05-09T20:01:21.544Z,14.85
2024-05-09T20:06:28.179Z,14.64
2024-05-09T20:11:34.061Z,14.23
2024-05-09T20:16:43.987Z,13.82
2024-05-09T20:21:49.335Z,13.61
2024-05-09T20:26:55.440Z,13.54
2024-05-09T20:32:00.914Z,12.93
2024-05-09T20:37:09.224Z,12.71
2024-05-09T20:42:14.884Z,12.88
2024-05-09T20:47:21.000Z,12.90
2024-05-09T20:52:25.904Z,12.81
2024-05-09T20:57:32.403Z,13.14
2024-05-09T21:02:38.621Z,13.19
2024-05-09T21:07:44.518Z,12.78
2024-05-09T21:12:49.631Z,12.51
2024-05-09T21:17:55.724Z,12.54
2024-05-09T21:23:01.282Z,12.45
2024-05-09T21:28:06.775Z,12.16
2024-05-09T21:33:15.068Z,11.95
2024-05-09T21:38:20.284Z,12.40
2024-05-09T21:43:26.842Z,12.47
2024-05-09T21:48:31.798Z,12.67
2024-05-09T21:53:37.957Z,12.03
2024-05-09T21:58:44.128Z,12.05
2024-05-09T22:03:50.327Z,12.22
2024-05-09T22:08:55.296Z,12.10
2024-05-09T22:14:00.090Z,12.02
2024-05-09T22:19:05.184Z,12.05
2024-05-09T22:24:10.609Z,11.92
2024-05-09T22:29:15.443Z,12.01
2024-05-09T22:34:20.502Z,11.88
2024-05-09T22:39:25.813Z,11.79
2024-05-09T22:44:30.630Z,11.73
2024-05-09T22:49:35.472Z,11.68
2024-05-09T22:54:40.305Z,11.80
2024-05-09T22:59:45.080Z,11.77
2024-05-09T23:04:50.125Z,11.43
2024-05-09T23:09:55.036Z,11.16
2024-05-09T23:15:00.030Z,11.16
2024-05-09T23:20:06.876Z,11.11
2024-05-09T23:25:14.575Z,11.12
2024-05-09T23:30:29.149Z,11.03
2024-05-09T23:35:42.149Z,11.11
2024-05-09T23:40:47.016Z,11.22
2024-05-09T23:45:51.823Z,11.13
2024-05-09T23:50:56.628Z,10.84
2024-05-09T23:56:01.422Z,11.09
